Time;durP1;ratioP1;P1;durP2;ratioP2;P2;SDS_P1;SDS_P2;PMS_P1;PMS_P2;Temp;Humidity;BMP_temperature;BMP_pressure;BME280_temperature;BME280_humidity;BME280_pressure;Samples;Min_cycle;Max_cycle;Signal;HPM_P1;HPM_P2
2022/07/03 00:00:33;;;;;;;13.25;11.15;;;;;;;21.39;100.00;95151.66;4967006;28;20634;-83
2022/07/03 00:03:13;;;;;;;13.65;11.45;;;;;;;21.31;100.00;95138.22;4963396;28;20222;-83
2022/07/03 00:05:45;;;;;;;18.13;12.52;;;;;;;21.24;100.00;95157.03;4973341;28;20754;-83
2022/07/03 00:08:27;;;;;;;15.70;12.07;;;;;;;21.07;100.00;95161.06;4974465;28;20259;-83
2022/07/03 00:11:02;;;;;;;15.05;12.23;;;;;;;20.84;100.00;95159.78;4973785;28;20275;-83
2022/07/03 00:13:43;;;;;;;16.48;12.45;;;;;;;20.78;100.00;95145.00;4972391;28;20581;-84
2022/07/03 00:16:28;;;;;;;15.82;11.98;;;;;;;20.75;100.00;95141.06;4962981;28;20225;-83
2022/07/03 00:19:08;;;;;;;15.60;12.32;;;;;;;20.81;100.00;95139.97;4972719;28;20205;-83
2022/07/03 00:21:49;;;;;;;18.30;12.95;;;;;;;20.79;100.00;95144.75;4972869;28;20219;-84
2022/07/03 00:24:34;;;;;;;20.20;11.98;;;;;;;20.86;100.00;95150.56;4973051;28;20945;-83
2022/07/03 00:27:15;;;;;;;16.83;12.30;;;;;;;20.66;100.00;95152.47;4969595;28;20614;-84
2022/07/03 00:29:58;;;;;;;17.92;12.77;;;;;;;20.55;100.00;95156.97;4972917;28;20200;-83
2022/07/03 00:32:43;;;;;;;18.30;11.98;;;;;;;20.52;100.00;95133.72;4971406;28;20212;-85
2022/07/03 00:35:23;;;;;;;17.90;12.60;;;;;;;20.47;100.00;95135.59;4965895;28;20693;-84
2022/07/03 00:38:00;;;;;;;18.42;13.30;;;;;;;20.50;100.00;95133.22;4966318;28;20212;-84
2022/07/03 00:40:36;;;;;;;18.60;12.98;;;;;;;20.62;100.00;95132.91;4972063;28;20274;-83
2022/07/03 00:43:18;;;;;;;19.75;12.95;;;;;;;20.67;100.00;95138.97;4959987;28;20231;-85
2022/07/03 00:45:56;;;;;;;15.35;12.60;;;;;;;20.65;100.00;95130.53;4973343;28;20669;-82
2022/07/03 00:48:32;;;;;;;16.38;13.25;;;;;;;20.69;100.00;95136.84;4971685;28;20609;-82
2022/07/03 00:51:13;;;;;;;15.10;12.20;;;;;;;20.72;100.00;95133.66;4973032;28;20209;-82
2022/07/03 00:53:56;;;;;;;17.08;13.05;;;;;;;20.61;100.00;95132.13;4971874;28;20204;-83
2022/07/03 00:56:36;;;;;;;15.80;12.88;;;;;;;20.75;100.00;95132.38;4972195;28;20201;-81
2022/07/03 00:59:11;;;;;;;18.45;13.10;;;;;;;20.78;100.00;95127.31;4966299;28;20283;-80
2022/07/03 01:01:54;;;;;;;18.73;12.95;;;;;;;20.73;100.00;95122.03;4961488;28;20289;-79
2022/07/03 01:04:47;;;;;;;17.23;11.93;;;;;;;20.74;100.00;95122.84;4970662;28;20229;-80
2022/07/03 01:07:37;;;;;;;17.25;12.73;;;;;;;20.72;100.00;95115.19;4968872;28;20204;-79
2022/07/03 01:10:14;;;;;;;16.05;12.13;;;;;;;20.76;100.00;95110.16;4969884;28;20201;-84
2022/07/03 01:13:03;;;;;;;17.40;12.10;;;;;;;20.83;100.00;95106.19;4972126;28;20560;-81
2022/07/03 01:15:49;;;;;;;16.42;11.93;;;;;;;20.97;100.00;95108.22;4966121;28;20224;-81
2022/07/03 01:18:35;;;;;;;25.48;12.65;;;;;;;20.92;100.00;95111.69;4970348;28;20205;-82
2022/07/03 01:21:20;;;;;;;14.68;12.77;;;;;;;20.80;100.00;95104.06;4966893;28;20228;-81
2022/07/03 01:24:21;;;;;;;17.50;11.65;;;;;;;20.55;100.00;95101.50;4966776;28;20215;-82
2022/07/03 01:27:03;;;;;;;17.88;12.55;;;;;;;20.40;100.00;95104.19;4971516;28;20204;-83
2022/07/03 01:29:49;;;;;;;22.85;12.13;;;;;;;20.30;100.00;95105.00;4970411;28;20216;-82
2022/07/03 01:32:34;;;;;;;16.65;12.30;;;;;;;20.40;100.00;95106.03;4971819;28;20600;-84
2022/07/03 01:35:20;;;;;;;15.95;11.80;;;;;;;20.46;100.00;95103.09;4964871;28;20275;-81
2022/07/03 01:37:56;;;;;;;18.02;12.23;;;;;;;20.52;100.00;95109.94;4970634;28;20213;-81
2022/07/03 01:40:36;;;;;;;18.65;12.80;;;;;;;20.52;100.00;95109.94;4967663;28;20856;-80
2022/07/03 01:43:22;;;;;;;18.83;12.63;;;;;;;20.36;100.00;95111.84;4972106;28;20239;-81
2022/07/03 01:45:58;;;;;;;18.60;13.15;;;;;;;20.28;100.00;95115.03;4971525;28;20640;-80
2022/07/03 01:48:40;;;;;;;19.35;12.90;;;;;;;20.30;100.00;95117.41;4970840;28;20216;-84
2022/07/03 01:51:23;;;;;;;17.40;12.73;;;;;;;20.30;100.00;95112.91;4971275;28;20211;-82
2022/07/03 01:53:57;;;;;;;17.83;12.52;;;;;;;20.42;100.00;95114.47;4970943;28;20291;-81
2022/07/03 01:56:38;;;;;;;18.45;12.88;;;;;;;20.44;100.00;95118.44;4958275;28;20243;-81
2022/07/03 01:59:22;;;;;;;15.75;12.50;;;;;;;20.45;100.00;95112.09;4955216;28;20209;-83
2022/07/03 02:02:04;;;;;;;13.73;12.07;;;;;;;20.30;100.00;95112.13;4973666;28;20283;-83
2022/07/03 02:04:49;;;;;;;16.88;13.25;;;;;;;20.25;100.00;95114.78;4971622;28;20228;-82
2022/07/03 02:07:45;;;;;;;19.92;12.95;;;;;;;20.18;100.00;95114.22;4971776;28;20585;-83
2022/07/03 02:10:31;;;;;;;14.13;12.43;;;;;;;20.08;100.00;95112.41;4972011;28;20213;-82
2022/07/03 02:13:17;;;;;;;18.27;13.52;;;;;;;20.10;100.00;95112.91;4973059;28;20208;-85
2022/07/03 02:16:01;;;;;;;17.48;13.40;;;;;;;20.19;100.00;95107.88;4970257;28;20205;-81
2022/07/03 02:18:41;;;;;;;18.85;13.10;;;;;;;20.26;100.00;95108.41;4969834;28;20705;-82
2022/07/03 02:21:22;;;;;;;17.70;13.98;;;;;;;20.29;100.00;95110.53;4970451;28;20845;-85
2022/07/03 02:24:08;;;;;;;26.13;14.65;;;;;;;20.17;100.00;95107.38;4971242;28;20680;-82
2022/07/03 02:26:47;;;;;;;17.33;13.80;;;;;;;20.16;100.00;95114.50;4970652;28;20212;-83
2022/07/03 02:29:31;;;;;;;20.55;13.77;;;;;;;20.16;100.00;95106.56;4966307;28;20200;-83
2022/07/03 02:32:13;;;;;;;23.52;13.55;;;;;;;20.23;100.00;95106.31;4968999;28;20196;-82
2022/07/03 02:34:54;;;;;;;17.63;13.30;;;;;;;20.26;100.00;95111.84;4968919;28;20320;-84
2022/07/03 02:37:36;;;;;;;19.27;12.82;;;;;;;20.28;100.00;95107.13;4970151;28;20300;-82
2022/07/03 02:40:18;;;;;;;18.88;12.88;;;;;;;20.30;100.00;95112.91;4963733;28;20205;-82
2022/07/03 02:43:05;;;;;;;15.98;12.95;;;;;;;20.33;100.00;95117.66;4971387;28;20215;-85
2022/07/03 02:45:50;;;;;;;17.88;13.23;;;;;;;20.32;100.00;95117.91;4970229;28;20223;-84
2022/07/03 02:48:35;;;;;;;17.77;13.50;;;;;;;20.31;100.00;95109.22;4970280;28;20274;-84
2022/07/03 02:51:15;;;;;;;20.65;12.95;;;;;;;20.24;100.00;95119.22;4970428;28;20291;-84
2022/07/03 02:53:58;;;;;;;15.63;12.85;;;;;;;20.18;100.00;95125.56;4970656;28;20247;-81
2022/07/03 02:56:42;;;;;;;17.45;13.38;;;;;;;20.13;100.00;95114.22;4958283;28;20679;-87
2022/07/03 02:59:26;;;;;;;17.38;13.20;;;;;;;20.13;100.00;95119.50;4971604;28;20212;-87
2022/07/03 03:02:11;;;;;;;16.30;14.23;;;;;;;20.03;100.00;95112.38;4971418;28;20247;-87
2022/07/03 03:04:56;;;;;;;17.63;12.90;;;;;;;19.99;100.00;95127.19;4971287;28;20454;-88
2022/07/03 03:07:38;;;;;;;20.45;13.80;;;;;;;20.06;100.00;95138.25;4971425;28;20238;-88
2022/07/03 03:10:10;;;;;;;21.88;13.82;;;;;;;20.03;100.00;95132.72;4964213;28;20263;-88
2022/07/03 03:12:49;;;;;;;16.10;13.80;;;;;;;20.04;100.00;95129.00;4972026;28;20208;-87
2022/07/03 03:15:29;;;;;;;17.55;14.05;;;;;;;20.00;100.00;95128.75;4971593;28;20211;-89
2022/07/03 03:18:07;;;;;;;19.13;13.45;;;;;;;20.09;100.00;95137.72;4972275;28;21013;-90
2022/07/03 03:20:49;;;;;;;22.65;16.25;;;;;;;20.15;100.00;95144.56;4970764;28;20239;-89
2022/07/03 03:23:39;;;;;;;21.95;16.05;;;;;;;20.18;100.00;95138.78;4970932;28;20681;-88
2022/07/03 03:26:15;;;;;;;28.02;18.77;;;;;;;20.15;100.00;95131.38;4968695;28;20278;-89
2022/07/03 03:28:54;;;;;;;23.80;18.20;;;;;;;20.26;100.00;95143.53;4971009;28;20219;-90
2022/07/03 03:31:34;;;;;;;23.77;17.08;;;;;;;20.31;100.00;95148.84;4975719;28;20204;-92
2022/07/03 03:34:13;;;;;;;26.50;15.68;;;;;;;20.38;100.00;95145.91;4976801;28;20208;-92
2022/07/03 03:36:57;;;;;;;22.42;17.08;;;;;;;20.43;100.00;95137.19;4976030;28;20654;-92
2022/07/03 03:39:33;;;;;;;23.15;15.90;;;;;;;20.40;100.00;95135.09;4975109;28;20208;-90
2022/07/03 03:42:10;;;;;;;21.38;15.07;;;;;;;20.47;100.00;95136.38;4975769;28;20208;-90
2022/07/03 03:44:47;;;;;;;19.50;15.73;;;;;;;20.49;100.00;95138.78;4976615;28;20282;-89
2022/07/03 03:47:26;;;;;;;25.83;15.98;;;;;;;20.54;100.00;95144.03;4962536;28;20216;-90
2022/07/03 03:50:00;;;;;;;21.38;15.10;;;;;;;20.55;100.00;95137.69;4978622;28;20224;-90
2022/07/03 03:52:42;;;;;;;20.27;15.20;;;;;;;20.60;100.00;95142.97;4979657;28;20214;-91
2022/07/03 03:55:18;;;;;;;22.63;15.68;;;;;;;20.59;100.00;95152.75;4971626;28;20213;-89
2022/07/03 03:57:52;;;;;;;23.02;15.70;;;;;;;20.48;100.00;95145.09;4976187;28;20208;-91
2022/07/03 04:00:30;;;;;;;19.38;14.75;;;;;;;20.26;100.00;95118.97;4973944;28;20216;-90
2022/07/03 04:03:10;;;;;;;20.60;14.80;;;;;;;20.42;100.00;95151.44;4972385;28;20930;-92
2022/07/03 04:05:49;;;;;;;19.10;14.52;;;;;;;20.21;100.00;95140.09;4975928;28;20229;-90
2022/07/03 04:08:34;;;;;;;17.85;13.80;;;;;;;20.22;100.00;95129.28;4975261;28;20632;-92
2022/07/03 04:11:12;;;;;;;30.92;13.77;;;;;;;20.47;100.00;95151.44;4974956;28;20291;-87
2022/07/03 04:13:49;;;;;;;23.55;14.60;;;;;;;20.34;100.00;95134.31;4968920;28;20224;-87
2022/07/03 04:16:26;;;;;;;19.77;16.20;;;;;;;20.37;100.00;95147.75;4973522;28;20235;-89
2022/07/03 04:19:02;;;;;;;18.67;14.40;;;;;;;20.33;100.00;95133.50;4972781;28;20219;-87
2022/07/03 04:21:36;;;;;;;17.20;14.07;;;;;;;20.24;100.00;95110.50;4925603;29;20236;-89
2022/07/03 04:24:17;;;;;;;29.08;15.98;;;;;;;20.29;100.00;95129.81;4936273;29;20754;-89
2022/07/03 04:27:00;;;;;;;20.65;15.52;;;;;;;20.12;100.00;95112.63;4936074;29;20230;-89
2022/07/03 04:29:37;;;;;;;17.70;15.00;;;;;;;20.30;100.00;95139.31;4931745;29;20592;-88
2022/07/03 04:32:14;;;;;;;25.15;15.52;;;;;;;20.25;100.00;95118.22;4936103;29;20228;-89
2022/07/03 04:34:47;;;;;;;18.95;14.57;;;;;;;20.37;100.00;95137.19;4936428;29;20220;-86
2022/07/03 04:37:25;;;;;;;20.75;14.57;;;;;;;20.38;100.00;95119.50;4937137;29;20641;-86
2022/07/03 04:40:06;;;;;;;18.27;15.32;;;;;;;20.58;100.00;95139.78;4936275;29;20198;-87
2022/07/03 04:42:49;;;;;;;21.85;14.15;;;;;;;20.74;100.00;95143.97;4936356;29;20208;-82
2022/07/03 04:45:28;;;;;;;23.13;15.68;;;;;;;20.66;100.00;95147.19;4934580;29;20213;-86
2022/07/03 04:48:05;;;;;;;21.67;15.95;;;;;;;20.49;100.00;95131.63;4934555;29;20248;-89
2022/07/03 04:50:39;;;;;;;19.33;15.55;;;;;;;20.33;100.00;95128.22;4928308;29;20252;-91
2022/07/03 04:53:15;;;;;;;19.40;16.25;;;;;;;20.41;100.00;95147.22;4937045;29;20210;-88
2022/07/03 04:55:53;;;;;;;19.65;15.32;;;;;;;20.42;100.00;95140.88;4936346;29;20236;-88
2022/07/03 04:58:34;;;;;;;22.75;15.20;;;;;;;20.54;100.00;95141.38;4936781;29;20222;-88
2022/07/03 05:01:11;;;;;;;22.92;15.35;;;;;;;20.56;100.00;95134.78;4938496;29;20209;-90
2022/07/03 05:03:49;;;;;;;18.95;14.70;;;;;;;20.51;100.00;95123.44;4936390;29;20198;-90
2022/07/03 05:06:29;;;;;;;19.73;14.32;;;;;;;20.58;100.00;95114.16;4939177;28;20237;-90
2022/07/03 05:09:09;;;;;;;19.75;14.85;;;;;;;20.83;100.00;95145.81;4922331;29;20210;-84
2022/07/03 05:11:46;;;;;;;17.92;14.07;;;;;;;20.75;100.00;95143.69;4935539;29;20202;-84
2022/07/03 05:14:15;;;;;;;16.55;14.52;;;;;;;20.79;100.00;95141.31;4934395;29;20284;-85
2022/07/03 05:16:48;;;;;;;21.33;14.75;;;;;;;20.84;100.00;95138.66;4933632;29;20289;-84
2022/07/03 05:19:29;;;;;;;22.17;14.85;;;;;;;20.90;100.00;95146.31;4937305;28;20265;-85
2022/07/03 05:22:00;;;;;;;19.60;14.48;;;;;;;20.78;100.00;95116.75;4972737;28;20327;-86
2022/07/03 05:24:34;;;;;;;19.17;14.07;;;;;;;20.93;100.00;95140.47;4974547;28;20201;-84
2022/07/03 05:27:05;;;;;;;22.63;14.55;;;;;;;20.89;100.00;95128.09;4973462;28;20224;-85
2022/07/03 05:29:43;;;;;;;17.67;13.43;;;;;;;21.05;100.00;95134.09;4972889;28;20231;-85
2022/07/03 05:32:24;;;;;;;17.20;13.27;;;;;;;21.16;100.00;95140.94;4974173;28;20236;-86
2022/07/03 05:34:59;;;;;;;22.35;13.90;;;;;;;21.26;100.00;95139.06;4972107;28;20223;-86
2022/07/03 05:37:34;;;;;;;19.40;13.90;;;;;;;21.27;100.00;95127.38;4974329;28;20235;-88
2022/07/03 05:40:08;;;;;;;18.10;13.40;;;;;;;21.37;100.00;95142.44;4978397;28;20227;-84
2022/07/03 05:42:47;;;;;;;21.80;13.38;;;;;;;21.50;100.00;95139.97;4971957;28;20200;-87
2022/07/03 05:45:23;;;;;;;17.60;13.45;;;;;;;21.58;100.00;95148.41;4973399;28;20263;-83
2022/07/03 05:48:00;;;;;;;15.68;12.65;;;;;;;21.71;100.00;95153.06;4972215;28;20224;-85
2022/07/03 05:50:28;;;;;;;17.65;12.68;;;;;;;21.79;100.00;95155.16;4972163;28;20201;-86
2022/07/03 05:52:57;;;;;;;18.50;12.63;;;;;;;21.79;100.00;95152.50;4973315;28;20262;-88
2022/07/03 05:55:29;;;;;;;17.52;11.98;;;;;;;21.63;100.00;95148.34;4972131;28;20212;-87
2022/07/03 05:58:07;;;;;;;18.58;13.18;;;;;;;21.73;100.00;95154.38;4965054;28;20564;-86
2022/07/03 06:00:42;;;;;;;83.47;15.35;;;;;;;21.75;100.00;95146.16;4960178;28;20665;-87
2022/07/03 06:03:13;;;;;;;23.63;13.38;;;;;;;21.87;100.00;95149.25;4971259;28;20212;-86
2022/07/03 06:05:49;;;;;;;17.83;13.10;;;;;;;21.83;100.00;95151.66;4973478;28;20196;-86
2022/07/03 06:08:25;;;;;;;16.13;12.70;;;;;;;21.92;100.00;95143.94;4972003;28;20197;-85
2022/07/03 06:10:58;;;;;;;14.63;12.50;;;;;;;;;;4971587;28;20216;-86
2022/07/03 06:13:39;;;;;;;15.18;13.07;;;;;;;22.05;100.00;95154.69;4971864;28;20261;-87
2022/07/03 06:16:22;;;;;;;18.92;12.90;;;;;;;22.07;100.00;95156.28;4968758;28;20635;-87
2022/07/03 06:18:59;;;;;;;19.98;12.90;;;;;;;22.13;100.00;95155.19;4971466;28;20563;-87
2022/07/03 06:21:32;;;;;;;13.88;11.95;;;;;;;22.22;100.00;95158.81;4971332;28;20232;-86
2022/07/03 06:24:10;;;;;;;20.30;12.70;;;;;;;22.30;100.00;95155.56;4971704;28;20263;-86
2022/07/03 06:26:45;;;;;;;15.35;12.40;;;;;;;22.41;99.83;95162.34;4971344;28;20306;-86
2022/07/03 06:29:25;;;;;;;17.15;12.32;;;;;;;22.41;97.07;95149.88;4968317;28;20207;-87
2022/07/03 06:32:02;;;;;;;20.30;11.70;;;;;;;22.54;96.54;95162.47;4976519;28;20200;-87
2022/07/03 06:34:37;;;;;;;18.40;13.18;;;;;;;22.56;95.88;95160.34;4972757;28;20291;-87
2022/07/03 06:37:14;;;;;;;19.00;12.23;;;;;;;22.60;96.55;95164.00;4972290;28;20192;-86
2022/07/03 06:39:49;;;;;;;17.92;11.70;;;;;;;22.66;95.55;95161.31;4971445;28;20201;-87
2022/07/03 06:42:22;;;;;;;16.25;11.55;;;;;;;22.74;95.13;95160.72;4972359;28;20193;-88
2022/07/03 06:45:01;;;;;;;16.48;11.60;;;;;;;22.82;95.09;95160.91;4971487;28;20613;-87
2022/07/03 06:47:29;;;;;;;17.92;11.23;;;;;;;22.88;94.07;95156.34;4970790;28;20222;-84
2022/07/03 06:50:01;;;;;;;17.58;12.40;;;;;;;22.92;95.08;95152.03;4972027;28;20213;-85
2022/07/03 06:52:32;;;;;;;21.38;13.18;;;;;;;22.96;94.40;95147.75;4970935;28;20197;-84
2022/07/03 06:55:14;;;;;;;18.45;12.55;;;;;;;23.13;93.04;95156.03;4971801;28;20217;-90
2022/07/03 06:57:49;;;;;;;17.25;13.40;;;;;;;23.18;93.72;95155.97;4970538;28;20201;-84
2022/07/03 07:00:29;;;;;;;15.98;12.93;;;;;;;23.12;92.43;95155.25;4969063;28;20208;-76
2022/07/03 07:03:11;;;;;;;17.33;13.00;;;;;;;23.12;93.14;95149.13;4963761;28;20204;-75
2022/07/03 07:05:46;;;;;;;14.55;11.80;;;;;;;23.17;93.22;95144.56;4970744;28;20235;-81
2022/07/03 07:08:23;;;;;;;21.02;13.77;;;;;;;23.31;92.06;95151.84;4970654;28;20228;-85
2022/07/03 07:10:54;;;;;;;23.25;14.18;;;;;;;23.35;91.01;95139.59;4964741;28;20725;-85
2022/07/03 07:13:26;;;;;;;19.52;13.27;;;;;;;23.39;90.89;95135.31;4971315;28;20211;-82
2022/07/03 07:15:59;;;;;;;17.77;13.10;;;;;;;23.40;92.62;95115.66;4963707;28;20209;-83
2022/07/03 07:18:28;;;;;;;17.45;12.77;;;;;;;23.51;90.23;95117.91;4971046;28;20204;-83
2022/07/03 07:20:59;;;;;;;17.55;13.32;;;;;;;23.63;88.13;95138.69;4967017;28;20405;-83
2022/07/03 07:23:33;;;;;;;21.02;12.02;;;;;;;23.62;89.31;95123.84;4969220;28;20647;-82
2022/07/03 07:26:07;;;;;;;19.70;12.40;;;;;;;23.80;88.95;95131.00;4969093;28;20284;-82
2022/07/03 07:28:43;;;;;;;17.75;12.80;;;;;;;23.84;86.92;95132.00;4969538;28;20203;-82
2022/07/03 07:31:22;;;;;;;14.80;12.80;;;;;;;23.72;86.11;95110.44;4967380;28;20308;-83
2022/07/03 07:33:54;;;;;;;17.20;13.55;;;;;;;23.83;86.86;95127.78;4968956;28;20704;-84
2022/07/03 07:36:24;;;;;;;20.35;14.63;;;;;;;23.88;86.93;95125.03;4970142;28;20638;-78
2022/07/03 07:38:58;;;;;;;19.70;13.18;;;;;;;23.84;87.29;95124.03;4972411;28;20310;-83
2022/07/03 07:41:26;;;;;;;17.80;13.38;;;;;;;23.96;86.90;95134.19;4975703;28;20251;-86
2022/07/03 07:43:59;;;;;;;16.52;13.90;;;;;;;24.00;86.45;95130.69;4969024;28;20216;-79
2022/07/03 07:46:35;;;;;;;15.07;12.70;;;;;;;24.13;87.04;95134.47;4973959;28;20266;-81
2022/07/03 07:49:08;;;;;;;15.05;11.57;;;;;;;24.28;88.21;95121.75;4970923;28;20196;-84
2022/07/03 07:51:42;;;;;;;20.90;12.00;;;;;;;24.62;85.27;95132.03;4970614;28;20204;-82
2022/07/03 07:54:18;;;;;;;16.90;12.75;;;;;;;24.75;82.08;95127.81;4966185;28;20219;-82
2022/07/03 07:56:47;;;;;;;14.40;10.73;;;;;;;24.95;82.50;95122.13;4968796;28;20231;-83
2022/07/03 07:59:21;;;;;;;16.67;11.80;;;;;;;25.05;80.98;95121.16;4970257;28;20213;-81
2022/07/03 08:07:38;;;;;;;11.45;9.80;;;;;;;25.66;76.23;95124.13;4960976;28;20625;-86
2022/07/03 08:10:11;;;;;;;19.02;10.73;;;;;;;25.74;75.22;95112.72;4970029;28;20679;-87
2022/07/03 08:12:42;;;;;;;17.48;10.63;;;;;;;25.86;74.23;95117.53;4970840;28;20566;-86
2022/07/03 08:15:12;;;;;;;13.13;9.85;;;;;;;25.89;73.96;95117.72;4975201;28;20295;-87
2022/07/03 08:17:47;;;;;;;13.23;10.23;;;;;;;25.95;73.46;95111.19;4969070;28;20209;-84
2022/07/03 08:20:20;;;;;;;15.65;10.38;;;;;;;25.99;72.70;95115.91;4972798;28;20236;-80
2022/07/03 08:22:50;;;;;;;14.13;10.02;;;;;;;25.92;72.91;95114.44;4963908;28;20357;-80
2022/07/03 08:25:24;;;;;;;14.30;10.13;;;;;;;25.81;72.86;95110.44;4978320;28;20679;-86
2022/07/03 08:27:56;;;;;;;12.05;9.98;;;;;;;25.87;73.32;95119.91;4974888;28;20275;-87
2022/07/03 08:30:33;;;;;;;15.15;10.10;;;;;;;25.80;72.63;95119.53;4974144;28;20679;-80
2022/07/03 08:33:14;;;;;;;16.70;10.45;;;;;;;25.54;73.23;95086.56;4973968;28;20208;-78
2022/07/03 08:35:44;;;;;;;14.30;9.82;;;;;;;25.78;73.94;95112.94;4974231;28;20654;-86
2022/07/03 08:38:29;;;;;;;20.42;10.32;;;;;;;25.95;74.52;95115.72;4982107;28;20232;-82
2022/07/03 08:41:10;;;;;;;16.10;9.32;;;;;;;26.07;73.72;95113.28;4975136;28;20680;-86
2022/07/03 08:44:08;;;;;;;13.50;9.93;;;;;;;26.10;73.15;95107.34;4981923;28;20200;-87
2022/07/03 08:47:02;;;;;;;13.68;8.90;;;;;;;26.31;72.52;95121.81;4977492;28;20650;-86
2022/07/03 08:49:52;;;;;;;13.05;9.23;;;;;;;26.36;71.95;95108.34;4989989;28;20248;-85
2022/07/03 08:55:21;;;;;;;11.13;9.10;;;;;;;26.76;69.47;95108.34;4972201;28;20201;-86
2022/07/03 08:58:09;;;;;;;10.98;8.23;;;;;;;26.72;68.40;95089.53;4963436;28;20209;-86
2022/07/03 09:01:04;;;;;;;12.15;9.10;;;;;;;26.80;68.15;95107.47;4977225;28;20229;-80
2022/07/03 09:03:49;;;;;;;12.52;9.07;;;;;;;26.78;67.96;95103.50;4977075;28;20682;-81
2022/07/03 09:06:38;;;;;;;15.32;9.00;;;;;;;26.80;67.03;95104.81;4974715;28;20196;-79
2022/07/03 09:09:13;;;;;;;11.23;8.93;;;;;;;26.83;67.50;95108.72;4973323;28;20201;-88
2022/07/03 09:11:49;;;;;;;9.48;7.97;;;;;;;26.98;68.41;95113.66;4963790;28;20212;-88
2022/07/03 09:14:26;;;;;;;11.63;8.15;;;;;;;27.22;67.45;95094.53;4974104;28;20216;-87
2022/07/03 09:17:02;;;;;;;18.88;7.47;;;;;;;27.36;65.44;95097.88;4974749;28;20193;-85
2022/07/03 09:19:52;;;;;;;11.15;7.85;;;;;;;27.32;65.28;95096.91;4968410;28;20300;-91
2022/07/03 09:22:48;;;;;;;11.77;7.32;;;;;;;27.31;65.35;95090.78;4975680;28;20212;-91
2022/07/03 09:25:41;;;;;;;8.35;7.50;;;;;;;27.35;65.71;95091.75;4976093;28;20244;-90
2022/07/03 09:28:31;;;;;;;10.02;7.28;;;;;;;27.99;62.08;95089.25;4969263;28;20233;-79
2022/07/03 09:31:25;;;;;;;10.15;6.65;;;;;;;28.48;58.84;95091.38;4974593;28;20275;-82
2022/07/03 09:34:21;;;;;;;9.07;6.57;;;;;;;28.68;58.46;95087.25;4971728;28;20205;-80
2022/07/03 09:37:03;;;;;;;8.85;6.45;;;;;;;28.63;56.99;95079.34;4973922;28;20257;-77
2022/07/03 09:40:17;;;;;;;7.10;5.95;;;;;;;28.60;56.88;95091.47;4973906;28;20295;-79
2022/07/03 09:43:28;;;;;;;8.82;6.45;;;;;;;28.72;57.19;95080.13;4965003;28;20205;-79
2022/07/03 09:46:17;;;;;;;10.52;6.55;;;;;;;28.58;56.72;95088.34;4973908;28;20209;-79
2022/07/03 09:49:07;;;;;;;6.68;6.05;;;;;;;28.49;57.32;95082.25;4973524;28;20217;-78
2022/07/03 09:54:45;;;;;;;9.65;6.70;;;;;;;28.90;56.38;95078.94;4972708;28;20251;-78
2022/07/03 09:57:44;;;;;;;9.38;6.10;;;;;;;29.03;55.66;95069.13;4967679;28;20197;-82
2022/07/03 10:00:28;;;;;;;14.02;6.40;;;;;;;29.37;58.51;95078.88;4972598;28;20284;-77
2022/07/03 10:03:08;;;;;;;7.63;6.50;;;;;;;29.61;57.37;95085.13;4973256;28;20204;-77
2022/07/03 10:05:52;;;;;;;7.90;5.70;;;;;;;29.80;52.63;95079.31;4972551;28;20209;-88
2022/07/03 10:08:53;;;;;;;8.48;6.07;;;;;;;29.98;53.53;95079.97;4971140;28;20778;-83
2022/07/03 10:11:47;;;;;;;9.40;6.00;;;;;;;30.14;53.47;95084.41;4973358;28;20209;-80
2022/07/03 10:14:44;;;;;;;8.55;6.53;;;;;;;30.23;54.17;95084.31;4972887;28;20240;-76
2022/07/03 10:17:30;;;;;;;7.38;6.57;;;;;;;29.92;53.03;95076.72;4972188;28;20203;-76
2022/07/03 10:20:32;;;;;;;;;;;;;;;;;;;;;
2022/07/03 10:23:27;;;;;;;8.98;6.65;;;;;;;30.26;55.68;95065.66;4973084;28;20207;-77
2022/07/03 10:26:18;;;;;;;8.63;6.30;;;;;;;30.60;53.87;95069.88;4966735;28;20271;-76
2022/07/03 10:29:15;;;;;;;6.90;6.18;;;;;;;30.89;53.17;95064.28;4972571;28;20263;-77
2022/07/03 10:32:16;;;;;;;12.02;6.30;;;;;;;31.20;52.70;95062.97;4972548;28;20226;-75
2022/07/03 10:35:08;;;;;;;6.82;6.13;;;;;;;31.38;49.54;95072.31;4972641;28;20201;-76
2022/07/03 10:38:10;;;;;;;10.25;5.88;;;;;;;31.38;50.15;95061.56;4970902;28;20225;-75
2022/07/03 10:47:17;;;;;;;12.75;5.78;;;;;;;31.50;46.45;95039.28;4972889;28;20262;-75
2022/07/03 10:53:38;;;;;;;5.70;5.10;;;;;;;31.92;44.87;95043.19;4970973;28;20626;-76
2022/07/03 10:56:33;;;;;;;6.82;5.03;;;;;;;32.27;44.46;95040.66;4972760;28;20306;-76
2022/07/03 10:59:21;;;;;;;5.30;4.60;;;;;;;32.28;42.46;95043.00;4972586;28;20247;-75
2022/07/03 11:02:34;;;;;;;7.60;4.63;;;;;;;32.00;42.19;95044.94;4972562;28;20227;-77
2022/07/03 11:05:46;;;;;;;5.63;4.13;;;;;;;31.51;40.07;95036.28;4970632;28;20303;-76
2022/07/03 11:08:41;;;;;;;8.25;4.80;;;;;;;31.30;40.43;95035.63;4970420;28;20266;-77
2022/07/03 11:12:01;;;;;;;5.30;4.80;;;;;;;31.59;43.80;95035.34;4972044;28;20205;-76
2022/07/03 11:15:17;;;;;;;4.90;4.32;;;;;;;32.21;41.90;95029.34;4972525;28;20212;-78
2022/07/03 11:18:33;;;;;;;6.38;4.50;;;;;;;32.86;41.72;95035.22;4972159;28;20675;-76
2022/07/03 11:24:56;;;;;;;6.95;4.63;;;;;;;33.56;39.78;95025.25;4971606;28;20672;-76
2022/07/03 11:27:49;;;;;;;5.80;4.43;;;;;;;33.46;37.51;95031.97;4971783;28;20283;-77
2022/07/03 11:30:38;;;;;;;6.07;4.68;;;;;;;33.32;39.59;95030.88;4972045;28;20211;-76
2022/07/03 11:33:50;;;;;;;7.40;4.68;;;;;;;33.46;39.78;95028.50;4971981;28;20287;-76
2022/07/03 11:39:54;;;;;;;6.03;4.50;;;;;;;33.87;39.54;95017.03;4971710;28;20675;-76
2022/07/03 11:42:51;;;;;;;5.20;4.70;;;;;;;34.06;40.09;95014.28;4972325;28;20209;-76
2022/07/03 11:45:53;;;;;;;5.88;5.38;;;;;;;34.13;40.08;95017.16;4971894;28;20208;-76
2022/07/03 11:48:48;;;;;;;7.10;5.30;;;;;;;34.35;38.29;95023.69;4971037;28;20224;-76
2022/07/03 11:51:59;;;;;;;5.60;4.65;;;;;;;34.50;38.95;95012.00;4974907;28;20204;-76
2022/07/03 11:55:03;;;;;;;7.38;4.97;;;;;;;34.35;37.70;95004.78;4975996;28;20212;-75
2022/07/03 11:58:02;;;;;;;6.88;4.95;;;;;;;34.14;37.10;95001.75;4976274;28;20203;-76
2022/07/03 12:00:55;;;;;;;5.35;4.68;;;;;;;34.17;36.97;95001.03;4976013;28;20296;-76
2022/07/03 12:03:48;;;;;;;5.00;4.50;;;;;;;34.07;38.84;94998.88;4972971;28;20229;-76
2022/07/03 12:06:48;;;;;;;5.25;4.75;;;;;;;34.35;38.77;95001.31;4975416;28;20267;-75
2022/07/03 12:09:49;;;;;;;6.85;5.20;;;;;;;34.55;37.87;95000.09;4975459;28;20776;-76
2022/07/03 12:12:47;;;;;;;7.28;4.68;;;;;;;34.60;38.48;95006.03;4975593;28;20205;-75
2022/07/03 12:15:45;;;;;;;9.55;4.70;;;;;;;34.46;37.58;95003.06;4975372;28;20718;-75
2022/07/03 12:18:22;;;;;;;5.32;4.88;;;;;;;34.51;38.41;95001.97;4975541;28;20200;-75
2022/07/03 12:21:17;;;;;;;6.53;5.07;;;;;;;34.69;38.94;94992.28;4974866;28;20236;-75
2022/07/03 12:24:13;;;;;;;7.57;4.68;;;;;;;34.85;38.59;94987.50;4975637;28;20209;-76
2022/07/03 12:27:04;;;;;;;6.40;4.75;;;;;;;35.13;38.67;94992.53;4975282;28;20201;-76
2022/07/03 12:30:01;;;;;;;6.45;4.80;;;;;;;35.25;38.06;94982.28;4975637;28;20308;-76
2022/07/03 12:35:43;;;;;;;7.68;4.72;;;;;;;35.43;37.12;94992.56;4974733;28;20287;-75
2022/07/03 12:38:46;;;;;;;5.82;5.07;;;;;;;35.21;37.13;94988.81;4975277;28;20256;-75
2022/07/03 12:44:41;;;;;;;6.10;5.22;;;;;;;34.67;39.32;94978.34;4975255;28;20208;-77
2022/07/03 12:47:30;;;;;;;5.55;5.03;;;;;;;34.99;38.27;94989.59;4974626;28;20616;-74
2022/07/03 12:50:19;;;;;;;6.63;5.10;;;;;;;35.22;38.51;94982.22;4974621;28;20209;-79
2022/07/03 12:53:08;;;;;;;8.88;5.63;;;;;;;35.36;38.27;94981.63;4974891;28;20200;-76
2022/07/03 12:56:13;;;;;;;6.70;4.97;;;;;;;35.01;38.33;94982.69;4972065;28;20705;-77
2022/07/03 13:02:22;;;;;;;6.32;5.18;;;;;;;34.53;39.67;94981.56;4973820;28;20266;-79
2022/07/03 13:05:25;;;;;;;9.48;5.20;;;;;;;34.86;38.51;94980.94;4974392;28;20291;-77
2022/07/03 13:08:07;;;;;;;6.63;4.95;;;;;;;35.14;38.51;94972.47;4974560;28;20239;-75